createdAt,value
2018-09-20T00:56:17.590Z,31
2018-09-20T00:57:07.798Z,31
2018-09-20T00:57:57.292Z,31.1
2018-09-20T00:58:47.907Z,31
2018-09-20T00:59:37.403Z,31
2018-09-20T01:00:28.372Z,31.1
2018-09-20T01:01:17.822Z,31
2018-09-20T01:02:08.167Z,31
2018-09-20T01:02:58.277Z,31
2018-09-20T01:03:47.705Z,31
2018-09-20T01:04:38.365Z,31
2018-09-20T01:05:27.859Z,31
2018-09-20T01:06:18.749Z,31
2018-09-20T01:07:08.305Z,31
2018-09-20T01:07:58.632Z,31
2018-09-20T01:08:48.096Z,31
2018-09-20T01:09:38.423Z,31
2018-09-20T01:10:28.505Z,31
2018-09-20T01:11:18.272Z,31
2018-09-20T01:12:08.924Z,31
2018-09-20T01:12:58.961Z,31
2018-09-20T01:13:48.455Z,31
2018-09-20T01:14:39.103Z,31
2018-09-20T01:15:28.849Z,31
2018-09-20T01:16:18.881Z,31
2018-09-20T01:17:09.288Z,31
2018-09-20T01:17:59.324Z,31
2018-09-20T01:18:48.862Z,31
2018-09-20T01:19:39.168Z,31
2018-09-20T01:20:29.534Z,30.9
2018-09-20T01:21:20.176Z,31
2018-09-20T01:22:09.327Z,31
2018-09-20T01:22:59.164Z,30.9
2018-09-20T01:23:49.228Z,30.9
2018-09-20T01:24:39.924Z,30.9
2018-09-20T01:25:29.623Z,30.9
2018-09-20T01:26:19.766Z,31
2018-09-20T01:27:10.007Z,31
2018-09-20T01:27:59.917Z,30.9
2018-09-20T01:28:50.181Z,30.9
2018-09-20T01:29:40.216Z,30.9
2018-09-20T01:30:29.996Z,30.9
2018-09-20T01:31:20.915Z,30.9
2018-09-20T01:32:10.399Z,30.9
2018-09-20T01:32:59.901Z,30.9
2018-09-20T01:33:50.797Z,30.9
2018-09-20T01:34:40.590Z,30.9
2018-09-20T01:35:31.295Z,30.9
2018-09-20T01:36:20.464Z,30.9
2018-09-20T01:37:10.780Z,30.9
2018-09-20T01:38:00.317Z,30.9
2018-09-20T01:38:50.595Z,30.9
2018-09-20T01:39:40.435Z,30.9
2018-09-20T01:40:30.763Z,30.9
2018-09-20T01:41:20.571Z,30.9
2018-09-20T01:42:10.857Z,30.9
2018-09-20T01:43:00.942Z,30.9
2018-09-20T01:43:51.317Z,30.9
2018-09-20T01:44:41.357Z,30.9
2018-09-20T01:45:31.123Z,30.9
2018-09-20T01:46:21.187Z,30.9
2018-09-20T01:47:11.533Z,30.9
2018-09-20T01:48:01.028Z,30.9
2018-09-20T01:48:51.367Z,30.9
2018-09-20T01:49:41.435Z,30.9
2018-09-20T01:50:31.510Z,30.9
2018-09-20T01:51:21.837Z,30.9
2018-09-20T01:52:11.940Z,30.9
2018-09-20T01:53:01.678Z,30.9
2018-09-20T01:53:51.742Z,30.9
2018-09-20T01:54:41.579Z,30.9
2018-09-20T01:55:31.854Z,30.9
2018-09-20T01:56:21.919Z,30.9
2018-09-20T01:57:12.512Z,30.9
2018-09-20T01:58:02.040Z,30.9
2018-09-20T01:58:52.405Z,30.9
2018-09-20T01:59:42.156Z,30.9
2018-09-20T02:00:32.514Z,30.9
2018-09-20T02:01:22.066Z,30.9
2018-09-20T02:02:12.093Z,30.9
2018-09-20T02:03:02.479Z,30.9
2018-09-20T02:03:53.074Z,30.9
2018-09-20T02:04:42.559Z,30.9
2018-09-20T02:05:32.329Z,30.8
2018-09-20T02:06:22.700Z,30.9
2018-09-20T02:07:12.997Z,30.9
2018-09-20T02:08:02.783Z,30.9
2018-09-20T02:08:52.881Z,30.9
2018-09-20T02:09:43.474Z,30.9
2018-09-20T02:10:33.273Z,30.9
2018-09-20T02:11:22.753Z,30.9
2018-09-20T02:12:13.386Z,30.9
2018-09-20T02:13:02.895Z,30.9
2018-09-20T02:13:53.229Z,30.9
2018-09-20T02:14:42.773Z,30.9
2018-09-20T02:15:33.638Z,30.8
2018-09-20T02:16:23.120Z,30.8
2018-09-20T02:17:13.775Z,30.9
2018-09-20T02:18:03.828Z,30.8
2018-09-20T02:18:53.329Z,30.8
2018-09-20T02:19:44.213Z,30.9
2018-09-20T02:20:33.793Z,30.8
2018-09-20T02:21:23.773Z,30.8
2018-09-20T02:22:13.907Z,30.8
2018-09-20T02:23:03.905Z,30.8
2018-09-20T02:23:53.995Z,30.8
2018-09-20T02:24:44.370Z,30.8
2018-09-20T02:25:34.105Z,30.8
2018-09-20T02:26:24.695Z,30.8
2018-09-20T02:27:14.528Z,30.8
2018-09-20T02:28:04.930Z,30.8
2018-09-20T02:28:54.650Z,30.8
2018-09-20T02:29:44.425Z,30.8
2018-09-20T02:30:34.505Z,30.8
2018-09-20T02:31:24.547Z,30.8
2018-09-20T02:32:14.612Z,30.8
2018-09-20T02:33:05.525Z,30.8
2018-09-20T02:33:54.722Z,30.8
2018-09-20T02:34:44.790Z,30.8
2018-09-20T02:35:34.896Z,30.8
2018-09-20T02:36:25.215Z,30.8
2018-09-20T02:37:14.987Z,30.8
2018-09-20T02:38:05.605Z,30.8
2018-09-20T02:38:55.393Z,30.8
2018-09-20T02:39:45.215Z,30.8
2018-09-20T02:40:34.989Z,30.8
2018-09-20T02:41:25.291Z,30.8
2018-09-20T02:42:15.365Z,30.8
2018-09-20T02:43:04.852Z,30.8
2018-09-20T02:43:55.804Z,30.8
2018-09-20T02:44:45.295Z,30.8
2018-09-20T02:45:35.592Z,30.8
2018-09-20T02:46:25.952Z,30.8
2018-09-20T02:47:15.857Z,30.8
2018-09-20T02:48:06.139Z,30.8
2018-09-20T02:48:55.853Z,30.8
2018-09-20T02:49:45.926Z,30.8
2018-09-20T02:50:36.011Z,30.8
2018-09-20T02:51:26.337Z,30.8
2018-09-20T02:52:15.251Z,30.8
2018-09-20T02:53:06.525Z,30.8
2018-09-20T02:53:56.524Z,30.8
2018-09-20T02:54:46.290Z,30.8
2018-09-20T02:55:36.424Z,30.8
2018-09-20T02:56:26.416Z,30.8
2018-09-20T02:57:16.734Z,30.8
2018-09-20T02:58:06.572Z,30.8
2018-09-20T02:58:57.486Z,30.8
2018-09-20T02:59:46.934Z,30.8
2018-09-20T03:00:36.741Z,30.8
2018-09-20T03:01:26.508Z,30.8
2018-09-20T03:02:17.100Z,30.8
2018-09-20T03:03:07.238Z,30.8
2018-09-20T03:03:57.297Z,30.7
2018-09-20T03:04:46.493Z,30.7
2018-09-20T03:05:36.794Z,30.8
2018-09-20T03:06:27.500Z,30.8
2018-09-20T03:07:17.493Z,30.8
2018-09-20T03:08:07.811Z,30.7
2018-09-20T03:08:57.011Z,30.7
2018-09-20T03:09:47.417Z,30.7
2018-09-20T03:10:37.465Z,30.7
2018-09-20T03:11:27.848Z,30.7
2018-09-20T03:12:17.315Z,30.7
2018-09-20T03:13:09.417Z,30.7
2018-09-20T03:13:58.036Z,30.7
2018-09-20T03:14:48.075Z,30.7
2018-09-20T03:15:37.585Z,30.7
2018-09-20T03:16:28.194Z,30.7
2018-09-20T03:17:18.257Z,30.7
2018-09-20T03:18:07.742Z,30.7
2018-09-20T03:18:58.704Z,30.7
2018-09-20T03:19:48.465Z,30.7
2018-09-20T03:20:38.518Z,30.7
2018-09-20T03:21:28.025Z,30.7
2018-09-20T03:22:18.324Z,30.7
2018-09-20T03:23:08.707Z,30.7
2018-09-20T03:23:59.039Z,30.7
2018-09-20T03:24:48.514Z,30.7
2018-09-20T03:25:38.631Z,30.7
2018-09-20T03:26:28.927Z,30.7
2018-09-20T03:27:18.709Z,30.7
2018-09-20T03:28:09.139Z,30.6
2018-09-20T03:28:58.251Z,30.7
2018-09-20T03:29:49.206Z,30.6
2018-09-20T03:30:40.948Z,30.6
2018-09-20T03:31:29.341Z,30.7
2018-09-20T03:32:19.495Z,30.7
2018-09-20T03:33:09.463Z,30.6
2018-09-20T03:33:58.943Z,30.6
2018-09-20T03:34:49.936Z,30.6
2018-09-20T03:35:40.066Z,30.6
2018-09-20T03:36:29.954Z,30.6
2018-09-20T03:37:19.808Z,30.6
2018-09-20T03:38:09.270Z,30.6
2018-09-20T03:38:59.905Z,30.6
2018-09-20T03:39:49.681Z,30.6
2018-09-20T03:40:39.736Z,30.6
2018-09-20T03:41:29.783Z,30.6
2018-09-20T03:42:20.109Z,30.6
2018-09-20T03:43:09.630Z,30.6
2018-09-20T03:43:59.700Z,30.6
2018-09-20T03:44:50.007Z,30.6
2018-09-20T03:45:40.083Z,30.6
2018-09-20T03:46:30.203Z,30.6
2018-09-20T03:47:20.520Z,30.6
2018-09-20T03:48:10.557Z,30.6
2018-09-20T03:48:59.470Z,30.6
2018-09-20T03:49:50.702Z,30.6
2018-09-20T03:50:40.179Z,30.6
2018-09-20T03:51:30.780Z,30.6
2018-09-20T03:52:20.892Z,30.6
2018-09-20T03:53:10.370Z,30.6
2018-09-20T03:54:00.130Z,30.6
2018-09-20T03:54:51.069Z,30.6
2018-09-20T03:55:41.114Z,30.6
2018-09-20T03:56:31.723Z,30.6
2018-09-20T03:57:20.997Z,30.6
2018-09-20T03:58:11.018Z,30.6
2018-09-20T03:59:00.494Z,30.6
2018-09-20T03:59:51.409Z,30.6
2018-09-20T04:00:41.214Z,30.6
2018-09-20T04:01:31.621Z,30.6
2018-09-20T04:02:21.856Z,30.6
2018-09-20T04:03:11.651Z,30.6
2018-09-20T04:04:01.745Z,30.6
2018-09-20T04:04:51.501Z,30.6
2018-09-20T04:05:41.579Z,30.6
2018-09-20T04:06:31.649Z,30.6
2018-09-20T04:07:21.939Z,30.6
2018-09-20T04:08:12.046Z,30.6
2018-09-20T04:09:01.532Z,30.6
2018-09-20T04:09:52.947Z,30.6
2018-09-20T04:10:42.222Z,30.6
2018-09-20T04:11:31.996Z,30.6
2018-09-20T04:12:21.553Z,30.6
2018-09-20T04:13:12.698Z,30.6
2018-09-20T04:14:02.194Z,30.6
2018-09-20T04:14:52.337Z,30.6
2018-09-20T04:15:42.340Z,30.6
2018-09-20T04:16:32.629Z,30.6
2018-09-20T04:17:22.755Z,30.6
2018-09-20T04:18:12.494Z,30.6
2018-09-20T04:19:02.541Z,30.6
2018-09-20T04:19:52.072Z,30.5
2018-09-20T04:20:42.979Z,30.6
2018-09-20T04:21:32.743Z,30.5
2018-09-20T04:22:22.297Z,30.5
2018-09-20T04:23:13.106Z,30.6
2018-09-20T04:24:02.947Z,30.5
2018-09-20T04:24:53.287Z,30.5
2018-09-20T04:25:43.354Z,30.5
2018-09-20T04:26:33.152Z,30.5
2018-09-20T04:27:23.204Z,30.5
2018-09-20T04:28:13.240Z,30.5
2018-09-20T04:29:03.342Z,30.5
2018-09-20T04:29:53.697Z,30.5
2018-09-20T04:30:43.743Z,30.5
2018-09-20T04:31:33.970Z,30.5
2018-09-20T04:32:23.863Z,30.5
2018-09-20T04:33:14.180Z,30.5
2018-09-20T04:34:03.746Z,30.5
2018-09-20T04:34:53.765Z,30.5
2018-09-20T04:35:44.129Z,30.5
2018-09-20T04:36:33.322Z,30.5
2018-09-20T04:37:23.965Z,30.5
2018-09-20T04:38:14.519Z,30.5
2018-09-20T04:39:04.071Z,30.5
2018-09-20T04:39:54.133Z,30.5
2018-09-20T04:40:43.880Z,30.5
2018-09-20T04:41:34.568Z,30.5
2018-09-20T04:42:24.565Z,30.5
2018-09-20T04:43:14.648Z,30.5
2018-09-20T04:44:04.686Z,30.5
2018-09-20T04:44:54.490Z,30.5
2018-09-20T04:45:44.911Z,30.4
2018-09-20T04:46:34.628Z,30.4
2018-09-20T04:47:24.994Z,30.5
2018-09-20T04:48:15.243Z,30.5
2018-09-20T04:49:04.813Z,30.4
2018-09-20T04:49:55.140Z,30.4
2018-09-20T04:50:45.183Z,30.5
2018-09-20T04:51:35.306Z,30.4
2018-09-20T04:52:25.311Z,30.4
2018-09-20T04:53:16.143Z,30.4
2018-09-20T04:54:05.476Z,30.4
2018-09-20T04:54:55.236Z,30.4
2018-09-20T04:55:45.282Z,30.4
2018-09-20T04:56:35.630Z,30.4
2018-09-20T04:57:25.438Z,30.4
2018-09-20T04:58:15.783Z,30.4
2018-09-20T04:59:05.815Z,30.4
2018-09-20T04:59:56.094Z,30.4
2018-09-20T05:00:46.246Z,30.4
2018-09-20T05:01:35.741Z,30.4
2018-09-20T05:02:25.482Z,30.4
2018-09-20T05:03:15.893Z,30.4
2018-09-20T05:04:05.921Z,30.4
2018-09-20T05:04:56.280Z,30.4
2018-09-20T05:05:45.753Z,30.4
2018-09-20T05:06:36.360Z,30.4
2018-09-20T05:07:26.150Z,30.4
2018-09-20T05:25:22.506Z,30.4
2018-09-20T05:26:12.278Z,30.4
2018-09-20T05:27:02.266Z,30.4
2018-09-20T05:27:52.068Z,30.4
2018-09-20T05:28:41.841Z,30.4
2018-09-20T05:29:32.293Z,30.4
2018-09-20T05:30:22.086Z,30.4
2018-09-20T05:31:12.313Z,30.4
2018-09-20T05:32:02.663Z,30.4
2018-09-20T05:32:52.434Z,30.4
2018-09-20T05:33:42.776Z,30.4
2018-09-20T05:34:32.590Z,30.4
2018-09-20T05:35:23.358Z,30.3
2018-09-20T05:36:12.403Z,30.4
2018-09-20T05:37:03.105Z,30.4
2018-09-20T05:37:52.832Z,30.4
2018-09-20T05:38:42.090Z,30.4
2018-09-20T05:39:33.247Z,30.4
2018-09-20T05:40:22.399Z,30.3
2018-09-20T05:41:13.100Z,30.3
2018-09-20T05:42:02.830Z,30.3
2018-09-20T05:42:52.904Z,30.4
2018-09-20T05:43:43.932Z,30.3
2018-09-20T05:44:33.553Z,30.4
2018-09-20T05:45:23.387Z,30.4
2018-09-20T05:46:13.857Z,30.3
2018-09-20T05:47:03.292Z,30.3
2018-09-20T05:47:53.553Z,30.3
2018-09-20T05:48:43.932Z,30.3
2018-09-20T05:49:33.704Z,30.3
2018-09-20T05:50:24.002Z,30.3
2018-09-20T05:51:14.179Z,30.3
2018-09-20T05:52:04.164Z,30.3
2018-09-20T05:52:53.946Z,30.3
2018-09-20T05:53:44.007Z,30.3
2018-09-20T05:54:34.558Z,30.3
2018-09-20T05:55:24.586Z,30.3
2018-09-20T05:56:14.551Z,30.3
2018-09-20T05:57:04.533Z,30.3
2018-09-20T05:57:54.634Z,30.3
2018-09-20T05:58:44.693Z,30.3
2018-09-20T05:59:34.473Z,30.3
2018-09-20T06:00:24.564Z,30.3
2018-09-20T06:01:14.569Z,30.3
2018-09-20T06:02:04.589Z,30.3
2018-09-20T06:02:54.988Z,30.3
2018-09-20T06:03:45.006Z,30.3
2018-09-20T06:04:35.096Z,30.3
2018-09-20T06:05:24.878Z,30.3
2018-09-20T06:06:14.968Z,30.3
2018-09-20T06:07:05.013Z,30.3
2018-09-20T06:07:55.378Z,30.3
2018-09-20T06:08:45.453Z,30.3
2018-09-20T06:09:35.175Z,30.3
2018-09-20T06:10:25.513Z,30.3
2018-09-20T06:11:15.358Z,30.3
2018-09-20T06:12:05.703Z,30.3
2018-09-20T06:12:55.459Z,30.3
2018-09-20T06:13:45.515Z,30.3
2018-09-20T06:14:35.852Z,30.3
2018-09-20T06:15:25.613Z,30.3
2018-09-20T06:16:16.278Z,30.3
2018-09-20T06:17:05.793Z,30.3
2018-09-20T06:17:56.090Z,30.3
2018-09-20T06:18:45.877Z,30.3
2018-09-20T06:19:35.913Z,30.3
2018-09-20T06:20:25.983Z,30.3
2018-09-20T06:21:15.756Z,30.3
2018-09-20T06:22:05.860Z,30.3
2018-09-20T06:22:55.915Z,30.3
2018-09-20T06:23:46.214Z,30.3
2018-09-20T06:24:36.592Z,30.3
2018-09-20T06:25:26.723Z,30.3
2018-09-20T06:26:16.703Z,30.3
2018-09-20T06:27:06.527Z,30.3
2018-09-20T06:27:56.840Z,30.3
2018-09-20T06:28:46.630Z,30.3
2018-09-20T06:29:36.801Z,30.3
2018-09-20T06:30:26.823Z,30.3
2018-09-20T06:31:16.842Z,30.3
2018-09-20T06:32:06.322Z,30.3
2018-09-20T06:32:56.962Z,30.3
2018-09-20T06:33:47.296Z,30.3
2018-09-20T06:34:36.522Z,30.3
2018-09-20T06:35:27.424Z,30.3
2018-09-20T06:36:16.909Z,30.2
2018-09-20T06:37:07.539Z,30.2
2018-09-20T06:37:57.602Z,30.3
2018-09-20T06:38:47.339Z,30.2
2018-09-20T06:39:37.451Z,30.3
2018-09-20T06:40:27.563Z,30.2
2018-09-20T06:41:17.572Z,30.2
2018-09-20T06:42:07.125Z,30.2
2018-09-20T06:42:57.679Z,30.3
2018-09-20T06:43:47.736Z,30.2
2018-09-20T06:44:37.795Z,30.2
2018-09-20T06:45:26.996Z,30.2
2018-09-20T06:46:18.217Z,30.2
2018-09-20T06:47:07.991Z,30.2
2018-09-20T06:47:57.814Z,30.2
2018-09-20T06:48:48.463Z,30.2
2018-09-20T06:49:38.516Z,30.2
2018-09-20T06:50:28.483Z,30.2
2018-09-20T06:51:18.863Z,30.2
2018-09-20T06:52:08.704Z,30.2
2018-09-20T06:52:58.545Z,30.2
2018-09-20T06:53:48.513Z,30.2
2018-09-20T06:54:38.237Z,30.2
2018-09-20T06:55:28.975Z,30.2
2018-09-20T06:56:18.677Z,30.2
2018-09-20T06:57:08.750Z,30.2
2018-09-20T06:57:59.098Z,30.2
2018-09-20T06:58:48.875Z,30.2
2018-09-20T06:59:39.207Z,30.2
2018-09-20T07:00:28.678Z,30.1
2018-09-20T07:01:19.325Z,30.1
2018-09-20T07:02:09.200Z,30.1
2018-09-20T07:02:59.930Z,30.1
2018-09-20T07:03:48.672Z,30
2018-09-20T07:04:38.753Z,30
2018-09-20T07:05:29.697Z,30
2018-09-20T07:06:19.233Z,29.9
2018-09-20T07:07:09.790Z,29.9
2018-09-20T07:07:59.653Z,29.9
2018-09-20T07:08:49.917Z,29.9
2018-09-20T07:09:39.957Z,29.9
2018-09-20T07:10:29.763Z,29.9
2018-09-20T07:11:20.097Z,29.9
2018-09-20T07:12:10.185Z,29.9
2018-09-20T07:12:59.943Z,29.9
2018-09-20T07:13:50.735Z,29.9
2018-09-20T07:14:39.775Z,29.9
2018-09-20T07:15:29.653Z,29.9
2018-09-20T07:16:20.242Z,29.9
2018-09-20T07:17:10.309Z,29.9
2018-09-20T07:18:00.677Z,29.9
2018-09-20T07:18:50.721Z,29.9
2018-09-20T07:19:40.202Z,29.9
2018-09-20T07:20:31.056Z,29.9
2018-09-20T07:21:20.923Z,29.9
2018-09-20T07:22:10.935Z,29.9
2018-09-20T07:23:00.689Z,29.9
2018-09-20T07:23:50.740Z,29.9
2018-09-20T07:24:40.860Z,29.9
2018-09-20T07:25:31.462Z,29.9
2018-09-20T07:26:20.939Z,29.9
2018-09-20T07:27:11.321Z,30
2018-09-20T07:28:01.367Z,30.1
2018-09-20T07:28:51.419Z,30.1
2018-09-20T07:29:41.521Z,30.1
2018-09-20T07:30:31.529Z,30.1
2018-09-20T07:31:21.131Z,30.1
2018-09-20T07:32:11.061Z,30.1
2018-09-20T07:33:01.444Z,30.1
2018-09-20T07:33:51.451Z,30.1
2018-09-20T07:34:41.557Z,30.1
2018-09-20T07:35:31.918Z,30.1
2018-09-20T07:36:21.972Z,30.1
2018-09-20T07:37:12.033Z,30.1
2018-09-20T07:38:01.571Z,30.1
2018-09-20T07:38:51.583Z,30.1
2018-09-20T07:39:41.800Z,30.1
2018-09-20T07:40:32.031Z,30.1
2018-09-20T07:41:22.340Z,30.1
2018-09-20T07:42:12.407Z,30.1
2018-09-20T07:43:02.708Z,30.1
2018-09-20T07:43:52.248Z,30.3
2018-09-20T07:44:42.320Z,30.4
2018-09-20T07:45:32.083Z,30.5
2018-09-20T07:46:22.725Z,30.6
2018-09-20T07:47:12.835Z,30.6
2018-09-20T07:48:02.870Z,30.6
2018-09-20T07:48:52.893Z,30.6
2018-09-20T07:49:42.767Z,30.6
2018-09-20T07:50:33.022Z,30.6
2018-09-20T07:51:22.767Z,30.6
2018-09-20T07:52:13.135Z,30.6
2018-09-20T07:53:02.942Z,30.6
2018-09-20T07:53:54.160Z,30.6
2018-09-20T07:54:43.099Z,30.6
2018-09-20T07:55:33.127Z,30.6
2018-09-20T07:56:23.484Z,30.6
2018-09-20T07:57:13.560Z,30.7
2018-09-20T07:58:03.286Z,30.9
2018-09-20T07:58:53.041Z,31.1
2018-09-20T07:59:43.699Z,31.2
2018-09-20T08:00:33.012Z,31.3
2018-09-20T08:01:23.103Z,31.3
2018-09-20T08:02:13.339Z,31.3
2018-09-20T08:03:03.485Z,31.3
2018-09-20T08:03:54.528Z,31.3
2018-09-20T08:04:44.481Z,31.4
2018-09-20T08:05:35.102Z,31.3
2018-09-20T08:06:24.223Z,31.3
2018-09-20T08:07:14.974Z,31.3
2018-09-20T08:08:04.396Z,31.3
2018-09-20T08:08:54.431Z,31.4
2018-09-20T08:09:43.929Z,31.5
2018-09-20T08:10:34.488Z,31.7
2018-09-20T08:11:24.597Z,31.8
2018-09-20T08:12:14.398Z,32
2018-09-20T08:13:05.482Z,32.1
2018-09-20T08:13:54.763Z,32.3
2018-09-20T08:14:44.554Z,32.5
2018-09-20T08:15:34.622Z,32.6
2018-09-20T08:16:24.408Z,32.8
2018-09-20T08:17:15.023Z,32.9
2018-09-20T08:18:04.754Z,33.1
2018-09-20T08:18:55.339Z,33.2
2018-09-20T08:19:44.683Z,33.4
2018-09-20T08:20:34.770Z,33.5
2018-09-20T08:21:25.650Z,33.6
2018-09-20T08:22:14.839Z,33.8
2018-09-20T08:23:05.456Z,34
2018-09-20T08:23:55.770Z,34.1
2018-09-20T08:24:45.303Z,34.2
2018-09-20T08:25:35.698Z,34.4
2018-09-20T08:26:25.132Z,34.5
2018-09-20T08:27:15.565Z,34.6
2018-09-20T08:28:05.877Z,34.8
2018-09-20T08:28:55.998Z,34.9
2018-09-20T08:29:45.692Z,35.1
2018-09-20T08:30:35.738Z,35.3
2018-09-20T08:31:26.107Z,35.4
2018-09-20T08:32:16.210Z,35.5
2018-09-20T08:33:05.707Z,35.6
2018-09-20T08:33:56.535Z,35.8
2018-09-20T08:34:46.371Z,35.9
2018-09-20T08:35:36.439Z,36.1
2018-09-20T08:36:26.230Z,36.2
2018-09-20T08:37:15.617Z,36.3
2018-09-20T08:38:06.332Z,36.5
2018-09-20T08:38:55.868Z,36.6
2018-09-20T08:39:46.440Z,36.8
2018-09-20T08:40:36.512Z,36.9
2018-09-20T08:41:26.829Z,37.1
2018-09-20T08:42:17.057Z,37.2
2018-09-20T08:43:06.705Z,37.3
2018-09-20T08:43:56.584Z,37.4
2018-09-20T08:44:46.891Z,37.6
2018-09-20T08:45:36.887Z,37.7
2018-09-20T08:46:26.376Z,37.9
2018-09-20T08:47:17.037Z,38
2018-09-20T08:48:07.979Z,38.1
2018-09-20T08:48:56.885Z,38.3
2018-09-20T08:49:47.231Z,38.4
2018-09-20T08:50:37.068Z,38.6
2018-09-20T08:51:27.653Z,38.7
2018-09-20T08:52:17.715Z,38.8
2018-09-20T08:53:07.191Z,39
2018-09-20T08:53:57.674Z,39.1
2018-09-20T08:54:48.171Z,39.3
2018-09-20T08:55:37.673Z,39.4
2018-09-20T08:56:28.073Z,39.6
2018-09-20T08:57:18.952Z,39.6
2018-09-20T08:58:07.863Z,39.8
2018-09-20T08:58:57.911Z,39.9
2018-09-20T08:59:48.265Z,40.1
2018-09-20T09:00:37.233Z,40.2
2018-09-20T09:01:28.355Z,40.3
2018-09-20T09:02:18.211Z,40.5
2018-09-20T09:03:08.195Z,40.6
2018-09-20T09:03:58.267Z,40.8
2018-09-20T09:04:48.350Z,40.9
2018-09-20T09:05:38.731Z,41
2018-09-20T09:06:28.768Z,41.2
2018-09-20T09:07:18.532Z,41.3
2018-09-20T09:08:08.915Z,41.4
2018-09-20T09:08:58.930Z,41.6
2018-09-20T09:09:49.087Z,41.7
2018-09-20T09:10:39.077Z,41.8
2018-09-20T09:11:29.128Z,41.9
2018-09-20T09:12:19.205Z,42.1
2018-09-20T09:13:09.262Z,42.2
2018-09-20T09:13:59.314Z,42.4
2018-09-20T09:14:49.103Z,42.5
2018-09-20T09:15:39.447Z,42.6
2018-09-20T09:16:29.569Z,42.8
2018-09-20T09:17:19.023Z,42.9
2018-09-20T09:18:09.880Z,43
2018-09-20T09:18:59.457Z,43.1
2018-09-20T09:19:49.848Z,43.3
2018-09-20T09:20:39.867Z,43.4
2018-09-20T09:21:29.046Z,43.6
2018-09-20T09:22:19.684Z,43.7
2018-09-20T09:23:09.783Z,43.8
2018-09-20T09:40:02.653Z,46.3
2018-09-20T09:40:51.906Z,46.5
2018-09-20T09:41:42.733Z,46.6
2018-09-20T09:42:32.300Z,46.8
2018-09-20T09:43:22.658Z,46.9
2018-09-20T09:44:12.762Z,47
2018-09-20T09:45:03.282Z,47.1
2018-09-20T09:45:52.835Z,47.3
2018-09-20T09:46:42.633Z,47.4
2018-09-20T09:47:32.680Z,47.5
2018-09-20T09:48:23.030Z,47.6
2018-09-20T09:49:13.350Z,47.8
2018-09-20T09:50:03.155Z,47.9
2018-09-20T09:50:52.918Z,48
2018-09-20T09:51:42.975Z,48.1
2018-09-20T09:52:33.349Z,48.3
2018-09-20T09:53:23.437Z,48.3
2018-09-20T09:54:13.092Z,48.5
2018-09-20T09:55:03.249Z,48.6
2018-09-20T09:55:53.549Z,48.7
2018-09-20T09:56:43.669Z,48.8
2018-09-20T09:57:33.708Z,48.9
2018-09-20T09:58:23.781Z,49
2018-09-20T09:59:13.852Z,49.1
2018-09-20T10:00:03.956Z,49.3
2018-09-20T10:00:53.959Z,49.4
2018-09-20T10:01:43.459Z,49.5
2018-09-20T10:02:34.944Z,49.6
2018-09-20T10:03:23.897Z,49.8
2018-09-20T10:04:14.278Z,49.9
2018-09-20T10:05:04.009Z,49.9
2018-09-20T10:05:54.096Z,50.1
2018-09-20T10:06:44.132Z,50.2
2018-09-20T10:07:33.384Z,50.3
2018-09-20T10:08:24.539Z,50.4
2018-09-20T10:09:14.324Z,50.5
2018-09-20T10:10:04.454Z,50.6
2018-09-20T10:11:44.518Z,50.9
2018-09-20T10:12:34.278Z,51
2018-09-20T10:13:25.862Z,51.1
2018-09-20T10:14:14.706Z,51.2
2018-09-20T10:15:03.994Z,51.3
2018-09-20T10:15:55.098Z,51.4
2018-09-20T10:16:45.215Z,51.5
2018-09-20T10:17:34.666Z,51.6
2018-09-20T10:18:24.743Z,51.7
2018-09-20T10:19:15.356Z,51.8
2018-09-20T10:20:55.483Z,52.1
2018-09-20T10:21:45.316Z,52.1
2018-09-20T10:22:35.623Z,52.3
2018-09-20T10:23:25.406Z,52.3
2018-09-20T10:24:15.746Z,52.5
2018-09-20T10:25:05.835Z,52.6
2018-09-20T10:25:55.890Z,52.7
2018-09-20T10:26:45.721Z,52.8
2018-09-20T10:27:36.023Z,52.9
2018-09-20T10:28:26.055Z,53
2018-09-20T10:29:15.896Z,53.1
2018-09-20T10:30:05.914Z,53.2
2018-09-20T10:30:56.355Z,53.3
2018-09-20T10:31:45.748Z,53.4
2018-09-20T10:32:36.384Z,53.5
2018-09-20T10:33:26.444Z,53.6
2018-09-20T10:34:16.209Z,53.7
2018-09-20T10:35:06.085Z,53.8
2018-09-20T10:35:55.827Z,53.9
2018-09-20T10:36:46.689Z,54
2018-09-20T10:37:36.805Z,54.1
2018-09-20T10:38:26.872Z,54.2
2018-09-20T10:39:16.612Z,54.3
2018-09-20T10:40:06.680Z,54.4
2018-09-20T10:40:56.720Z,54.4
2018-09-20T10:41:46.794Z,54.6
2018-09-20T10:42:37.167Z,54.7
2018-09-20T10:43:26.915Z,54.7
2018-09-20T10:44:17.276Z,54.9
2018-09-20T10:45:07.382Z,54.9
2018-09-20T10:45:57.657Z,55
2018-09-20T10:46:46.952Z,55.1
2018-09-20T10:47:37.574Z,55.3
2018-09-20T10:48:27.574Z,55.3
2018-09-20T10:49:16.824Z,55.4
2018-09-20T10:50:07.162Z,55.5
2018-09-20T10:50:57.829Z,55.6
2018-09-20T10:51:48.158Z,55.7
2018-09-20T10:52:37.865Z,55.8
2018-09-20T10:53:27.984Z,55.9
2018-09-20T10:54:18.014Z,55.9
2018-09-20T10:55:08.077Z,56.1
2018-09-20T10:55:57.049Z,56.1
2018-09-20T10:56:48.274Z,56.2
2018-09-20T10:57:38.041Z,56.3
2018-09-20T10:58:28.339Z,56.4
2018-09-20T10:59:18.394Z,56.5
2018-09-20T11:00:08.489Z,56.6
2018-09-20T11:00:58.519Z,56.7
2018-09-20T11:01:48.364Z,56.8
2018-09-20T11:02:38.673Z,56.8
2018-09-20T11:03:29.411Z,56.9
2018-09-20T11:04:18.784Z,57
2018-09-20T11:05:08.859Z,57.1
2018-09-20T11:05:58.910Z,57.2
2018-09-20T11:06:48.973Z,57.3
2018-09-20T11:07:38.751Z,57.4
2018-09-20T11:08:29.106Z,57.4
2018-09-20T11:09:18.608Z,57.5
2018-09-20T11:10:08.979Z,57.6
2018-09-20T11:10:59.586Z,57.7
2018-09-20T11:11:49.393Z,57.8
2018-09-20T11:12:39.673Z,57.9
2018-09-20T11:13:29.218Z,57.9
2018-09-20T11:14:19.272Z,58.1
2018-09-20T11:15:09.321Z,58.1
2018-09-20T11:15:59.667Z,58.2
2018-09-20T11:16:49.461Z,58.3
2018-09-20T11:17:39.570Z,58.4
2018-09-20T11:18:29.854Z,58.4
2018-09-20T11:19:19.642Z,58.5
2018-09-20T11:21:00.057Z,58.6
2018-09-20T11:21:50.162Z,58.7
2018-09-20T11:22:39.676Z,58.8
2018-09-20T11:23:30.240Z,58.9
2018-09-20T11:24:20.329Z,58.9
2018-09-20T11:25:10.373Z,59.1
2018-09-20T11:26:01.415Z,59.1
2018-09-20T11:26:50.232Z,59.2
2018-09-20T11:27:40.580Z,59.3
2018-09-20T11:28:30.620Z,59.3
2018-09-20T11:29:20.958Z,59.4
2018-09-20T11:30:10.457Z,59.4
2018-09-20T11:31:00.818Z,59.6
2018-09-20T11:31:50.900Z,59.6
2018-09-20T11:32:40.949Z,59.7
2018-09-20T11:33:31.014Z,59.8
2018-09-20T11:34:21.078Z,59.8
2018-09-20T11:35:11.122Z,59.9
2018-09-20T11:36:00.917Z,60
2018-09-20T11:36:51.039Z,60.1
2018-09-20T11:37:41.329Z,60.1
2018-09-20T11:38:31.372Z,60.2
2018-09-20T11:39:21.169Z,60.3
2018-09-20T11:40:10.990Z,60.3
2018-09-20T11:41:01.323Z,60.4
2018-09-20T11:41:51.699Z,60.4
2018-09-20T11:42:41.429Z,60.5
2018-09-20T11:43:32.205Z,60.6
2018-09-20T11:44:21.861Z,60.6
2018-09-20T11:45:11.724Z,60.7
2018-09-20T11:46:01.688Z,60.8
2018-09-20T11:46:52.091Z,60.9
2018-09-20T11:47:42.071Z,60.9
2018-09-20T11:48:31.831Z,60.9
2018-09-20T16:40:38.266Z,60.4
2018-09-20T16:41:28.605Z,60.4
2018-09-20T16:42:17.888Z,60.4
2018-09-20T16:43:07.680Z,60.4
2018-09-20T16:43:58.060Z,60.3
2018-09-20T16:44:48.271Z,60.3
2018-09-20T16:45:38.671Z,60.3
2018-09-20T16:46:28.683Z,60.3
2018-09-20T16:47:18.175Z,60.3
2018-09-20T16:48:08.846Z,60.3
2018-09-20T16:48:59.175Z,60.3
2018-09-20T16:49:48.933Z,60.3
2018-09-20T16:50:39.015Z,60.3
2018-09-20T16:51:29.064Z,60.2
2018-09-20T16:52:19.417Z,60.2
2018-09-20T16:53:09.982Z,60.2
2018-09-20T16:53:59.033Z,60.2
2018-09-20T16:54:49.345Z,60.2
2018-09-20T16:55:38.807Z,60.2
2018-09-20T16:56:29.162Z,60.1
2018-09-20T16:57:18.952Z,60.1
2018-09-20T16:58:09.579Z,60.1
2018-09-20T16:58:59.580Z,60.1
2018-09-20T16:59:49.687Z,60.1
2018-09-20T17:00:38.909Z,60.1
2018-09-20T17:01:29.835Z,60.1
2018-09-20T17:02:19.133Z,60.1
2018-09-20T17:03:09.955Z,60.1
2018-09-20T17:03:59.437Z,60.1
2018-09-20T17:04:49.510Z,60
2018-09-20T17:05:40.402Z,60
2018-09-20T17:06:29.723Z,60
2018-09-20T17:07:21.039Z,60
2018-09-20T17:08:10.049Z,60
2018-09-20T17:08:59.534Z,60
2018-09-20T17:09:50.464Z,60
2018-09-20T17:10:40.294Z,59.9
2018-09-20T17:11:30.106Z,59.9
2018-09-20T17:12:20.186Z,59.9
2018-09-20T17:13:09.828Z,59.9
2018-09-20T17:14:00.301Z,59.9
2018-09-20T17:14:51.981Z,59.9
2018-09-20T17:15:40.641Z,59.9
2018-09-20T17:16:31.122Z,59.9
2018-09-20T17:17:20.771Z,59.9
2018-09-20T17:18:11.103Z,59.9
2018-09-20T17:19:00.871Z,59.9
2018-09-20T17:19:51.794Z,59.9
2018-09-20T17:20:41.016Z,59.8
2018-09-20T17:21:31.365Z,59.8
2018-09-20T17:22:21.466Z,59.8
2018-09-20T17:23:10.914Z,59.8
2018-09-20T17:24:01.250Z,59.8
2018-09-20T17:24:51.305Z,59.8
2018-09-20T17:25:41.678Z,59.8
2018-09-20T17:26:31.731Z,59.8
2018-09-20T17:27:21.215Z,59.8
2018-09-20T17:28:11.578Z,59.8
2018-09-20T17:29:01.912Z,59.8
2018-09-20T17:29:51.973Z,59.7
2018-09-20T17:30:41.757Z,59.7
2018-09-20T17:31:31.572Z,59.7
2018-09-20T17:32:22.178Z,59.7